createdAt,value
2019-04-29T00:01:15.360Z,97550.76
2019-04-29T00:03:42.402Z,97549.41
2019-04-29T00:06:09.376Z,97542.67
2019-04-29T00:08:36.361Z,97542.57
2019-04-29T00:11:03.368Z,97538.30
2019-04-29T00:13:30.348Z,97539.44
2019-04-29T00:16:01.339Z,97539.50
2019-04-29T00:18:29.187Z,97536.98
2019-04-29T00:20:56.191Z,97537.86
2019-04-29T00:23:23.179Z,97541.77
2019-04-29T00:25:50.223Z,97539.01
2019-04-29T00:28:17.242Z,97534.16
2019-04-29T00:30:44.286Z,97541.67
2019-04-29T00:33:11.766Z,97531.10
2019-04-29T00:35:38.764Z,97528.48
2019-04-29T00:38:16.662Z,97539.82
2019-04-29T00:40:49.262Z,97529.48
2019-04-29T00:43:22.050Z,97529.80
2019-04-29T00:45:49.042Z,97532.22
2019-04-29T00:48:16.043Z,97536.02
2019-04-29T00:50:43.035Z,97531.23
2019-04-29T00:53:10.070Z,97533.17
2019-04-29T00:55:37.117Z,97534.67
2019-04-29T00:58:04.099Z,97534.11
2019-04-29T01:00:33.547Z,97538.41
2019-04-29T01:03:00.598Z,97538.66
2019-04-29T01:05:27.654Z,97533.18
2019-04-29T01:07:54.720Z,97538.03
2019-04-29T01:10:21.750Z,97542.82
2019-04-29T01:12:48.779Z,97535.86
2019-04-29T01:15:15.794Z,97539.44
2019-04-29T01:17:42.828Z,97535.17
2019-04-29T01:20:09.822Z,97536.47
2019-04-29T01:22:36.866Z,97537.78
2019-04-29T01:25:03.894Z,97542.56
2019-04-29T01:27:30.931Z,97543.67
2019-04-29T01:29:59.083Z,97540.17
2019-04-29T01:32:26.085Z,97542.57
2019-04-29T01:34:53.136Z,97548.63
2019-04-29T01:37:20.147Z,97545.08
2019-04-29T01:39:52.761Z,97545.59
2019-04-29T01:42:19.969Z,97551.64
2019-04-29T01:44:46.984Z,97553.84
2019-04-29T01:47:14.125Z,97549.77
2019-04-29T01:49:41.112Z,97545.08
2019-04-29T01:52:08.166Z,97545.75
2019-04-29T01:54:35.151Z,97543.83
2019-04-29T01:57:02.160Z,97544.66
2019-04-29T01:59:29.302Z,97552.55
2019-04-29T02:01:56.290Z,97545.69
2019-04-29T02:04:23.384Z,97552.17
2019-04-29T02:06:50.370Z,97548.20
2019-04-29T02:09:17.387Z,97536.41
2019-04-29T02:11:44.397Z,97543.34
2019-04-29T02:14:11.391Z,97537.08
2019-04-29T02:16:38.374Z,97535.83
2019-04-29T02:19:05.435Z,97532.97
2019-04-29T02:21:32.414Z,97527.79
2019-04-29T02:24:17.058Z,97527.85
2019-04-29T02:26:44.103Z,97529.47
2019-04-29T02:29:11.077Z,97524.94
2019-04-29T02:31:38.090Z,97522.38
2019-04-29T02:34:05.172Z,97519.98
2019-04-29T02:36:32.157Z,97518.56
2019-04-29T02:39:16.184Z,97514.77
2019-04-29T02:41:43.223Z,97512.04
2019-04-29T02:44:10.241Z,97511.27
2019-04-29T02:46:37.318Z,97504.42
2019-04-29T02:49:04.335Z,97505.62
2019-04-29T02:51:37.134Z,97503.13
2019-04-29T02:54:04.219Z,97504.12
2019-04-29T02:56:31.233Z,97501.77
2019-04-29T02:58:58.252Z,97503.70
2019-04-29T03:01:35.460Z,97498.46
2019-04-29T03:04:05.216Z,97491.09
2019-04-29T03:06:32.380Z,97484.84
2019-04-29T03:08:59.599Z,97492.56
2019-04-29T03:11:26.730Z,97488.92
2019-04-29T03:13:53.806Z,97482.68
2019-04-29T03:18:59.434Z,97476.72
2019-04-29T03:21:41.529Z,97477.56
2019-04-29T03:24:08.778Z,97484.44
2019-04-29T03:29:24.956Z,97489.95
2019-04-29T03:31:51.948Z,97483.59
2019-04-29T03:34:19.110Z,97487.50
2019-04-29T03:36:46.180Z,97488.92
2019-04-29T03:39:14.097Z,97489.43
2019-04-29T03:41:41.091Z,97489.58
2019-04-29T03:44:08.100Z,97490.78
2019-04-29T03:46:35.127Z,97489.73
2019-04-29T03:49:02.146Z,97494.33
2019-04-29T03:51:29.673Z,97498.56
2019-04-29T03:53:57.106Z,97493.72
2019-04-29T03:56:24.551Z,97500.02
2019-04-29T03:58:51.531Z,97499.84
2019-04-29T04:01:30.706Z,97502.70
2019-04-29T04:03:59.075Z,97507.94
2019-04-29T04:06:28.089Z,97513.86
2019-04-29T04:09:05.320Z,97509.80
2019-04-29T04:11:22.732Z,97514.74
2019-04-29T04:13:49.918Z,97514.54
2019-04-29T04:16:17.477Z,97525.23
2019-04-29T04:18:44.459Z,97525.35
2019-04-29T04:21:11.503Z,97530.95
2019-04-29T04:23:38.493Z,97529.05
2019-04-29T04:26:05.614Z,97526.95
2019-04-29T04:28:32.612Z,97528.12
2019-04-29T04:30:59.848Z,97534.02
2019-04-29T04:33:26.875Z,97543.08
2019-04-29T04:35:54.493Z,97539.67
2019-04-29T04:38:21.526Z,97545.97
2019-04-29T04:40:51.767Z,97551.98
2019-04-29T04:43:19.285Z,97553.45
2019-04-29T04:45:46.300Z,97545.02
2019-04-29T04:48:13.332Z,97550.23
2019-04-29T04:50:40.504Z,97550.03
2019-04-29T04:53:07.787Z,97544.81
2019-04-29T04:55:34.974Z,97555.16
2019-04-29T04:58:02.116Z,97556.02
2019-04-29T05:00:29.102Z,97563.50
2019-04-29T05:02:56.090Z,97558.91
2019-04-29T05:05:23.097Z,97559.61
2019-04-29T05:07:50.075Z,97563.44
2019-04-29T05:10:17.105Z,97561.34
2019-04-29T05:12:44.101Z,97560.67
2019-04-29T05:15:11.105Z,97558.91
2019-04-29T05:17:38.084Z,97569.28
2019-04-29T05:20:05.101Z,97563.39
2019-04-29T05:22:32.106Z,97567.09
2019-04-29T05:24:59.091Z,97560.16
2019-04-29T05:27:26.075Z,97568.05
2019-04-29T05:29:53.280Z,97568.88
2019-04-29T05:32:20.278Z,97573.52
2019-04-29T05:34:48.252Z,97575.29
2019-04-29T05:37:16.743Z,97577.22
2019-04-29T05:39:43.796Z,97593.52
2019-04-29T05:42:16.231Z,97583.76
2019-04-29T05:44:38.643Z,97586.94
2019-04-29T05:50:06.428Z,97586.05
2019-04-29T05:52:34.665Z,97587.55
2019-04-29T05:55:01.583Z,97586.95
2019-04-29T05:57:27.119Z,97591.81
2019-04-29T05:59:54.634Z,97592.24
2019-04-29T06:02:24.016Z,97597.47
2019-04-29T06:04:52.345Z,97594.86
2019-04-29T06:07:21.440Z,97596.66
2019-04-29T06:09:43.895Z,97599.30
2019-04-29T06:12:11.369Z,97602.95
2019-04-29T06:14:38.419Z,97600.18
2019-04-29T06:17:07.735Z,97604.45
2019-04-29T06:19:35.206Z,97600.63
2019-04-29T06:21:59.914Z,97596.52
2019-04-29T06:24:26.945Z,97598.36
2019-04-29T06:26:53.927Z,97602.94
2019-04-29T06:29:20.923Z,97596.45
2019-04-29T06:31:47.921Z,97598.65
2019-04-29T06:34:14.952Z,97604.73
2019-04-29T06:36:41.948Z,97601.63
2019-04-29T06:39:08.951Z,97603.16
2019-04-29T06:44:16.591Z,97600.73
2019-04-29T06:46:38.990Z,97606.92
2019-04-29T06:49:10.304Z,97603.45
2019-04-29T06:51:33.141Z,97603.45
2019-04-29T06:54:00.255Z,97604.38
2019-04-29T06:56:27.377Z,97606.32
2019-04-29T06:58:54.443Z,97612.40
2019-04-29T07:01:21.471Z,97609.11
2019-04-29T07:03:48.475Z,97610.58
2019-04-29T07:06:15.478Z,97609.39
2019-04-29T07:08:42.480Z,97611.56
2019-04-29T07:11:09.526Z,97613.30
2019-04-29T07:13:36.633Z,97612.38
2019-04-29T07:16:03.719Z,97616.72
2019-04-29T07:18:30.765Z,97604.06
2019-04-29T07:20:57.750Z,97607.17
2019-04-29T07:23:24.797Z,97597.52
2019-04-29T07:25:52.714Z,97597.61
2019-04-29T08:28:59.939Z,97582.38
2019-04-29T08:31:21.039Z,97579.13
2019-04-29T08:33:48.545Z,97583.61
2019-04-29T08:36:14.092Z,97587.05
2019-04-29T08:38:41.295Z,97584.37
2019-04-29T08:41:08.311Z,97586.69
2019-04-29T08:43:37.102Z,97588.05
2019-04-29T08:46:07.767Z,97593.00
